This is the latest recevied weather packets stored in our database for station/object WX7FGZ-3. If no packets are shown the sender has not sent any weather packets the latest 10 day(s).
| Time | Temp. | Humidity | Pressure | Rain* | Wind** | Luminosity | Snow |
|---|---|---|---|---|---|---|---|
| 1777838292 | 18.89° C | 22% | 1011.4 hPa | 0 mm | - | - | - |
| 1777837691 | 19.44° C | 22% | 1011.4 hPa | 0 mm | - | - | - |
| 1777837481 | 20° C | 21% | 1012 hPa | 0 mm | - | - | - |
| 1777837391 | 19.44° C | 22% | 1011.5 hPa | 0 mm | - | - | - |
| 1777837091 | 19.44° C | 22% | 1011.6 hPa | 0 mm | - | - | - |
| 1777836490 | 20° C | 21% | 1012 hPa | 0 mm | - | - | - |
| 1777836228 | 20.56° C | 23% | 1012.3 hPa | 0 mm | - | - | - |
| 1777836190 | 20° C | 22% | 1011.9 hPa | 0 mm | - | - | - |
| 1777835289 | 20.56° C | 23% | 1012.3 hPa | 0 mm | - | - | - |
| 1777834993 | 17.78° C | 27% | 1013.3 hPa | 0 mm | - | - | - |
| 1777832886 | 17.78° C | 27% | 1013.3 hPa | 0 mm | - | - | - |
| 1777832550 | 19.44° C | 25% | 1013.5 hPa | 0 mm | - | - | - |
| 1777831685 | 19.44° C | 25% | 1013.5 hPa | 0 mm | - | - | - |
| 1777831191 | 18.89° C | 26% | 1013.7 hPa | 0 mm | - | - | - |
| 1777831182 | 18.33° C | 27% | 1013.8 hPa | 0 mm | - | - | - |
| 1777831085 | 18.89° C | 26% | 1013.7 hPa | 0 mm | - | - | - |
| 1777830784 | 18.33° C | 27% | 1013.8 hPa | 0 mm | - | - | - |
| 1777830726 | 18.33° C | 27% | 1013.9 hPa | 0 mm | - | - | - |
| 1777830485 | 18.33° C | 28% | 1013.7 hPa | 0 mm | - | - | - |
| 1777830184 | 18.33° C | 27% | 1013.9 hPa | 0 mm | - | - | - |
| 1777830047 | 16.67° C | 30% | 1013.9 hPa | 0 mm | - | - | - |
| 1777830036 | 17.22° C | 28% | 1013.9 hPa | 0 mm | - | - | - |
| 1777829884 | 17.78° C | 30% | 1013.8 hPa | 0 mm | - | - | - |
| 1777829583 | 16.67° C | 30% | 1013.9 hPa | 0 mm | - | - | - |
| 1777829283 | 17.22° C | 28% | 1013.9 hPa | 0 mm | - | - | - |
* Rain latest hour (hover to see other rain measurements)
** Current wind speed in m/s (hover to see current wind gust speed)